Aeroporto :
LOGIN :

Iscrizione | Disclaimer

   EN    FR    IT 

 










Sommario :    VFR   VFR Marginale   IFR   IFR Intensivo   IFR Molto Intensivo
Visibilità : 
Base nubi : 
>= 8 km
>= 3000ft
5 / 8 km
1000 / 3000 ft
1500m / 5 km
500 / 1000 ft
800 / 1500m
200 / 500 ft
< 800m
< 200 ft
Simboli :   Temporali  Nebbia  Neve Forte  Precipitazioni Forti  Vento > 20 kt
SIGMETs :   Varie  Temporali  Ghiacco  Turbolenza  Onda orograficha  Ceneri Vulcaniche






- Altitudine del aeroporto : 16 ft
- Codice IATA : EAS


LESO - San Sebastian Fuenterrabia

ULTIMO METAR :
  • 070000Z AUTO VRB02KT 9999 VV001 13/12 Q1024

METARs OBSOLETI :
  • 062330Z AUTO 06003KT 9999 -RA VV001 13/12 Q1024
  • 062300Z AUTO 05002KT 9999 VV001 13/12 Q1024
  • 062230Z AUTO VRB02KT 9999 -RA VV001 13/12 Q1024
  • 062200Z AUTO 00000KT 6000 -RA SCT012 BKN059 13/13 Q1024
  • 062130Z AUTO 00000KT 9999 -RA FEW006 BKN013 BKN057 13/12 Q1024 RERA

TAF TAF LESO
Valido dal 07 a 00 ore il 08 a 00 ore UTC


062300Z 0700/0724 VRB04KT 9999 SCT010 BKN045 TX17/0715Z TN11/0706Z
PROB40
TEMPO 0700/0703 3000 -RA BR BKN010



MetMap, La meteo Aeronautica in un colpo d'occhio ! - Copyright ORBIFLY Dicembre 2007 - Disclaimer

ORBIFLY MET'MAP TEAM :

Programmazione e sviluppo : Alexandra Zaïnal
Concezione : Baudouin d'Aumeries
Aiuto per la programmazione : Marc-Olivier Méhu
Supporto tecnico e logistico : Manuel Goepfert
Aiuto per la traduzione : Arnaldo La Scala

Contatto : metmap@orbifly.com




FONTI E CREDITI :

   NOAA